Joliet, IL

12:32 PM CDT on August 26, 2016 (GMT -0500)
Warwick Subdivision, Joliet, IL | | Change Station

Elev 591 ft 41.55 °N, 88.15 °W | Updated 2 minutes ago

Scattered Clouds
Scattered Clouds
82.1 °F
Feels Like 85 °F
N
3.0
Wind Variable Wind from ESE
Gusts 6.0 mph

Today
High -- | Low -- °F
--% Chance of Precip.
Yesterday
High -- | Low -- °F
Precip. -- in
Pressure 30.16 in
Visibility 10.0 miles
Clouds Scattered Clouds 3300 ft
Heat Index 85 °F
Dew Point 68 °F
Humidity 62%
Rainfall 0.00 in
Snow Depth Not available.
6:13 AM 7:34 PM
Waning Crescent, 33% visible
METAR KJOT 261715Z AUTO 07004KT 10SM SCT033 26/19 A3016 RMK AO2 T02620192
Pressure 30.16 in
Visibility 10.0 miles
Clouds Scattered Clouds 3300 ft
Heat Index 85 °F
Dew Point 68 °F
Humidity 62%
Rainfall 0.00 in
Snow Depth Not available.
6:13 AM 7:34 PM
Waning Crescent, 33% visible
METAR KJOT 261715Z AUTO 07004KT 10SM SCT033 26/19 A3016 RMK AO2 T02620192

10-Day Weather Forecast

Almanac

Astronomy

Aug. 26, 2016 Rise Set
Actual Time
Civil Twilight
Nautical Twilight
Astronomical Twilight
Moon
Length of Visible Light
Length of Day
Tomorrow will be .
, % of the Moon is Illuminated

Today's Extremes

State Highs State Lows

Community

WunderPhotos

Upload Photos

1,935,151 photos uploaded!

WunderBlog® & News

Nearby

Air Quality

  Air Quality AQ Index Pollutant
Not available.

Snow Depth

Station Depth Elevation

Earthquake Activity

City Distance Mag. Time & Date
Minimum magnitude displayed is 2.5.

Coastal Water Temperatures

Place Temperature

Stations

Nearby Weather Stations

Station Location Temp. Windchill Dew Point Humidity Wind Precip. Elev Updated Type
                   

Watches & Warnings

There are currently no watches in effect.